sensor_id;sensor_type;location;lat;lon;timestamp;temperature;humidity
9776;DHT22;4927;52.472;13.108;2022-11-09T00:02:20;11.60;99.90
9776;DHT22;4927;52.472;13.108;2022-11-09T00:07:28;11.60;99.90
9776;DHT22;4927;52.472;13.108;2022-11-09T00:12:33;11.60;99.90
9776;DHT22;4927;52.472;13.108;2022-11-09T00:17:39;11.50;99.90
9776;DHT22;4927;52.472;13.108;2022-11-09T00:22:46;11.50;99.90
9776;DHT22;4927;52.472;13.108;2022-11-09T00:27:52;11.50;99.90
9776;DHT22;4927;52.472;13.108;2022-11-09T00:32:58;11.50;99.90
9776;DHT22;4927;52.472;13.108;2022-11-09T00:38:04;11.60;99.90
9776;DHT22;4927;52.472;13.108;2022-11-09T00:43:11;11.60;99.90
9776;DHT22;4927;52.472;13.108;2022-11-09T00:48:17;11.50;99.90
9776;DHT22;4927;52.472;13.108;2022-11-09T00:53:23;11.60;99.90
9776;DHT22;4927;52.472;13.108;2022-11-09T00:58:30;11.70;99.90
9776;DHT22;4927;52.472;13.108;2022-11-09T01:03:36;11.80;99.90
9776;DHT22;4927;52.472;13.108;2022-11-09T01:08:42;11.70;99.90
9776;DHT22;4927;52.472;13.108;2022-11-09T01:13:48;11.60;99.90
9776;DHT22;4927;52.472;13.108;2022-11-09T01:18:55;11.60;99.90
9776;DHT22;4927;52.472;13.108;2022-11-09T01:24:01;11.60;99.90
9776;DHT22;4927;52.472;13.108;2022-11-09T01:29:07;11.60;99.90
9776;DHT22;4927;52.472;13.108;2022-11-09T01:34:14;11.60;99.90
9776;DHT22;4927;52.472;13.108;2022-11-09T01:39:20;11.50;99.90
9776;DHT22;4927;52.472;13.108;2022-11-09T01:44:26;11.40;99.90
9776;DHT22;4927;52.472;13.108;2022-11-09T01:49:51;11.30;99.90
9776;DHT22;4927;52.472;13.108;2022-11-09T01:54:59;11.30;99.90
9776;DHT22;4927;52.472;13.108;2022-11-09T02:00:06;11.20;99.90
9776;DHT22;4927;52.472;13.108;2022-11-09T02:05:13;11.10;99.90
9776;DHT22;4927;52.472;13.108;2022-11-09T02:10:28;11.10;99.90
9776;DHT22;4927;52.472;13.108;2022-11-09T02:15:32;11.00;99.90
9776;DHT22;4927;52.472;13.108;2022-11-09T02:20:44;10.90;99.90
9776;DHT22;4927;52.472;13.108;2022-11-09T02:25:52;10.90;99.90
9776;DHT22;4927;52.472;13.108;2022-11-09T02:30:58;10.80;99.90
9776;DHT22;4927;52.472;13.108;2022-11-09T02:36:06;10.90;99.90
9776;DHT22;4927;52.472;13.108;2022-11-09T02:41:13;10.90;99.90
9776;DHT22;4927;52.472;13.108;2022-11-09T02:46:24;10.90;99.90
9776;DHT22;4927;52.472;13.108;2022-11-09T02:51:29;10.90;99.90
9776;DHT22;4927;52.472;13.108;2022-11-09T02:56:36;10.80;99.90
9776;DHT22;4927;52.472;13.108;2022-11-09T03:01:42;10.90;99.90
9776;DHT22;4927;52.472;13.108;2022-11-09T03:06:48;10.90;99.90
9776;DHT22;4927;52.472;13.108;2022-11-09T03:11:54;10.90;99.90
9776;DHT22;4927;52.472;13.108;2022-11-09T03:16:59;11.00;99.90
9776;DHT22;4927;52.472;13.108;2022-11-09T03:22:06;11.10;99.90
9776;DHT22;4927;52.472;13.108;2022-11-09T03:27:12;11.10;99.90
9776;DHT22;4927;52.472;13.108;2022-11-09T03:32:16;11.20;99.90
9776;DHT22;4927;52.472;13.108;2022-11-09T03:37:22;11.20;99.90
9776;DHT22;4927;52.472;13.108;2022-11-09T03:42:29;11.20;99.90
9776;DHT22;4927;52.472;13.108;2022-11-09T03:47:38;11.20;99.90
9776;DHT22;4927;52.472;13.108;2022-11-09T03:52:44;11.30;99.90
9776;DHT22;4927;52.472;13.108;2022-11-09T03:57:49;11.30;99.90
9776;DHT22;4927;52.472;13.108;2022-11-09T04:02:54;11.30;99.90
9776;DHT22;4927;52.472;13.108;2022-11-09T04:07:58;11.30;99.90
9776;DHT22;4927;52.472;13.108;2022-11-09T04:13:04;11.30;99.90
9776;DHT22;4927;52.472;13.108;2022-11-09T04:18:11;11.30;99.90
9776;DHT22;4927;52.472;13.108;2022-11-09T04:23:17;11.30;99.90
9776;DHT22;4927;52.472;13.108;2022-11-09T04:28:23;11.40;99.90
9776;DHT22;4927;52.472;13.108;2022-11-09T04:33:29;11.40;99.90
9776;DHT22;4927;52.472;13.108;2022-11-09T04:38:35;11.40;99.90
9776;DHT22;4927;52.472;13.108;2022-11-09T04:43:42;11.40;99.90
9776;DHT22;4927;52.472;13.108;2022-11-09T04:48:48;11.40;99.90
9776;DHT22;4927;52.472;13.108;2022-11-09T04:53:52;11.40;99.90
9776;DHT22;4927;52.472;13.108;2022-11-09T04:58:56;11.50;99.90
9776;DHT22;4927;52.472;13.108;2022-11-09T05:04:03;11.50;99.90
9776;DHT22;4927;52.472;13.108;2022-11-09T05:09:10;11.50;99.90
9776;DHT22;4927;52.472;13.108;2022-11-09T05:14:15;11.50;99.90
9776;DHT22;4927;52.472;13.108;2022-11-09T05:19:21;11.50;99.90
9776;DHT22;4927;52.472;13.108;2022-11-09T05:24:27;11.50;99.90
9776;DHT22;4927;52.472;13.108;2022-11-09T05:29:34;11.50;99.90
9776;DHT22;4927;52.472;13.108;2022-11-09T05:34:40;11.50;99.90
9776;DHT22;4927;52.472;13.108;2022-11-09T05:39:46;11.60;99.90
9776;DHT22;4927;52.472;13.108;2022-11-09T05:44:50;11.60;99.90
9776;DHT22;4927;52.472;13.108;2022-11-09T05:49:57;11.70;99.90
9776;DHT22;4927;52.472;13.108;2022-11-09T05:55:04;11.60;99.90
9776;DHT22;4927;52.472;13.108;2022-11-09T06:00:12;11.70;99.90
9776;DHT22;4927;52.472;13.108;2022-11-09T06:05:16;11.70;99.90
9776;DHT22;4927;52.472;13.108;2022-11-09T06:10:23;11.70;99.90
9776;DHT22;4927;52.472;13.108;2022-11-09T06:15:29;11.70;99.90
9776;DHT22;4927;52.472;13.108;2022-11-09T06:20:36;11.70;99.90
9776;DHT22;4927;52.472;13.108;2022-11-09T06:25:42;11.70;99.90
9776;DHT22;4927;52.472;13.108;2022-11-09T06:30:46;11.70;99.90
9776;DHT22;4927;52.472;13.108;2022-11-09T06:35:52;11.70;99.90
9776;DHT22;4927;52.472;13.108;2022-11-09T06:40:58;11.70;99.90
9776;DHT22;4927;52.472;13.108;2022-11-09T06:46:05;11.60;99.90
9776;DHT22;4927;52.472;13.108;2022-11-09T06:51:11;11.50;99.90
9776;DHT22;4927;52.472;13.108;2022-11-09T06:56:17;11.50;99.90
9776;DHT22;4927;52.472;13.108;2022-11-09T07:01:25;11.50;99.90
9776;DHT22;4927;52.472;13.108;2022-11-09T07:06:30;11.40;99.90
9776;DHT22;4927;52.472;13.108;2022-11-09T07:11:37;11.30;99.90
9776;DHT22;4927;52.472;13.108;2022-11-09T07:16:43;11.30;99.90
9776;DHT22;4927;52.472;13.108;2022-11-09T07:21:47;11.30;99.90
9776;DHT22;4927;52.472;13.108;2022-11-09T07:26:53;11.30;99.90
9776;DHT22;4927;52.472;13.108;2022-11-09T07:32:00;11.40;99.90
9776;DHT22;4927;52.472;13.108;2022-11-09T07:37:06;11.40;99.90
9776;DHT22;4927;52.472;13.108;2022-11-09T07:42:12;11.40;99.90
9776;DHT22;4927;52.472;13.108;2022-11-09T07:47:17;11.30;99.90
9776;DHT22;4927;52.472;13.108;2022-11-09T07:52:21;11.30;99.90
9776;DHT22;4927;52.472;13.108;2022-11-09T07:57:28;11.30;99.90
9776;DHT22;4927;52.472;13.108;2022-11-09T08:02:34;11.30;99.90
9776;DHT22;4927;52.472;13.108;2022-11-09T08:07:40;11.30;99.90
9776;DHT22;4927;52.472;13.108;2022-11-09T08:12:51;11.20;99.90
9776;DHT22;4927;52.472;13.108;2022-11-09T08:17:51;11.20;99.90
9776;DHT22;4927;52.472;13.108;2022-11-09T08:22:57;11.30;99.90
9776;DHT22;4927;52.472;13.108;2022-11-09T08:28:03;11.30;99.90
9776;DHT22;4927;52.472;13.108;2022-11-09T08:33:10;11.40;99.90
9776;DHT22;4927;52.472;13.108;2022-11-09T08:38:16;11.40;99.90
9776;DHT22;4927;52.472;13.108;2022-11-09T08:43:22;11.40;99.90
9776;DHT22;4927;52.472;13.108;2022-11-09T08:48:28;11.40;99.90
9776;DHT22;4927;52.472;13.108;2022-11-09T08:53:35;11.50;99.90
9776;DHT22;4927;52.472;13.108;2022-11-09T08:58:41;11.60;99.90
9776;DHT22;4927;52.472;13.108;2022-11-09T09:03:48;11.60;99.90
9776;DHT22;4927;52.472;13.108;2022-11-09T09:08:54;11.60;99.90
9776;DHT22;4927;52.472;13.108;2022-11-09T09:14:00;11.70;99.90
9776;DHT22;4927;52.472;13.108;2022-11-09T09:19:07;11.70;99.90
9776;DHT22;4927;52.472;13.108;2022-11-09T09:24:13;11.80;99.90
9776;DHT22;4927;52.472;13.108;2022-11-09T09:29:19;12.00;99.90
9776;DHT22;4927;52.472;13.108;2022-11-09T09:34:26;12.10;99.90
9776;DHT22;4927;52.472;13.108;2022-11-09T09:39:32;12.20;99.90
9776;DHT22;4927;52.472;13.108;2022-11-09T09:50:10;12.40;99.90
9776;DHT22;4927;52.472;13.108;2022-11-09T09:55:34;12.40;99.90
9776;DHT22;4927;52.472;13.108;2022-11-09T10:00:37;12.30;99.90
9776;DHT22;4927;52.472;13.108;2022-11-09T10:05:50;12.30;99.90
9776;DHT22;4927;52.472;13.108;2022-11-09T10:10:58;12.40;99.90
9776;DHT22;4927;52.472;13.108;2022-11-09T10:16:04;12.40;99.90
9776;DHT22;4927;52.472;13.108;2022-11-09T10:21:22;12.60;99.90
9776;DHT22;4927;52.472;13.108;2022-11-09T10:26:29;12.60;99.90
9776;DHT22;4927;52.472;13.108;2022-11-09T10:31:31;12.70;99.90
9776;DHT22;4927;52.472;13.108;2022-11-09T10:36:44;12.90;99.90
9776;DHT22;4927;52.472;13.108;2022-11-09T10:41:48;13.40;99.90
9776;DHT22;4927;52.472;13.108;2022-11-09T10:47:04;13.60;99.90
9776;DHT22;4927;52.472;13.108;2022-11-09T10:57:32;14.10;99.90
9776;DHT22;4927;52.472;13.108;2022-11-09T11:02:40;14.40;99.90
9776;DHT22;4927;52.472;13.108;2022-11-09T11:07:45;14.80;99.90
9776;DHT22;4927;52.472;13.108;2022-11-09T11:13:18;15.00;99.90
9776;DHT22;4927;52.472;13.108;2022-11-09T11:18:02;14.90;99.90
9776;DHT22;4927;52.472;13.108;2022-11-09T11:23:17;14.70;99.90
9776;DHT22;4927;52.472;13.108;2022-11-09T11:28:22;14.70;99.90
9776;DHT22;4927;52.472;13.108;2022-11-09T11:33:27;15.00;99.90
9776;DHT22;4927;52.472;13.108;2022-11-09T11:38:38;15.20;99.90
9776;DHT22;4927;52.472;13.108;2022-11-09T11:44:06;15.40;99.90
9776;DHT22;4927;52.472;13.108;2022-11-09T11:49:28;15.40;99.90
9776;DHT22;4927;52.472;13.108;2022-11-09T11:54:19;15.60;99.90
9776;DHT22;4927;52.472;13.108;2022-11-09T11:59:42;15.80;99.90
9776;DHT22;4927;52.472;13.108;2022-11-09T12:04:54;15.90;99.90
9776;DHT22;4927;52.472;13.108;2022-11-09T12:10:19;16.00;99.90
9776;DHT22;4927;52.472;13.108;2022-11-09T12:15:44;15.90;99.90
9776;DHT22;4927;52.472;13.108;2022-11-09T12:21:11;15.80;99.90
9776;DHT22;4927;52.472;13.108;2022-11-09T12:26:24;16.10;99.90
9776;DHT22;4927;52.472;13.108;2022-11-09T12:31:30;16.20;99.90
9776;DHT22;4927;52.472;13.108;2022-11-09T12:36:41;16.20;99.90
9776;DHT22;4927;52.472;13.108;2022-11-09T12:41:45;16.10;99.90
9776;DHT22;4927;52.472;13.108;2022-11-09T12:46:55;15.90;99.90
9776;DHT22;4927;52.472;13.108;2022-11-09T12:51:58;16.00;99.90
9776;DHT22;4927;52.472;13.108;2022-11-09T12:57:05;16.00;99.90
9776;DHT22;4927;52.472;13.108;2022-11-09T13:02:19;15.80;99.90
9776;DHT22;4927;52.472;13.108;2022-11-09T13:07:39;15.80;99.90
9776;DHT22;4927;52.472;13.108;2022-11-09T13:12:42;15.80;99.90
9776;DHT22;4927;52.472;13.108;2022-11-09T13:17:50;15.70;99.90
9776;DHT22;4927;52.472;13.108;2022-11-09T13:22:56;15.60;99.90
9776;DHT22;4927;52.472;13.108;2022-11-09T13:28:02;15.60;99.90
9776;DHT22;4927;52.472;13.108;2022-11-09T13:33:15;15.50;99.90
9776;DHT22;4927;52.472;13.108;2022-11-09T13:38:20;15.40;99.90
9776;DHT22;4927;52.472;13.108;2022-11-09T13:43:29;15.20;99.90
9776;DHT22;4927;52.472;13.108;2022-11-09T13:48:36;15.20;99.90
9776;DHT22;4927;52.472;13.108;2022-11-09T13:53:51;15.20;99.90
9776;DHT22;4927;52.472;13.108;2022-11-09T13:58:58;15.20;99.90
9776;DHT22;4927;52.472;13.108;2022-11-09T14:04:02;15.10;99.90
9776;DHT22;4927;52.472;13.108;2022-11-09T14:09:11;14.80;99.90
9776;DHT22;4927;52.472;13.108;2022-11-09T14:19:52;14.70;99.90
9776;DHT22;4927;52.472;13.108;2022-11-09T14:24:55;14.60;99.90
9776;DHT22;4927;52.472;13.108;2022-11-09T14:30:12;14.50;99.90
9776;DHT22;4927;52.472;13.108;2022-11-09T14:35:11;14.40;99.90
9776;DHT22;4927;52.472;13.108;2022-11-09T14:40:27;14.30;99.90
9776;DHT22;4927;52.472;13.108;2022-11-09T14:45:32;14.20;99.90
9776;DHT22;4927;52.472;13.108;2022-11-09T14:50:37;13.90;99.90
9776;DHT22;4927;52.472;13.108;2022-11-09T14:55:43;13.90;99.90
9776;DHT22;4927;52.472;13.108;2022-11-09T15:06:10;13.70;99.90
9776;DHT22;4927;52.472;13.108;2022-11-09T15:11:15;13.60;99.90
9776;DHT22;4927;52.472;13.108;2022-11-09T15:16:23;13.60;99.90
9776;DHT22;4927;52.472;13.108;2022-11-09T15:21:33;13.40;99.90
9776;DHT22;4927;52.472;13.108;2022-11-09T15:26:40;13.40;99.90
9776;DHT22;4927;52.472;13.108;2022-11-09T15:31:55;13.30;99.90
9776;DHT22;4927;52.472;13.108;2022-11-09T15:36:53;13.20;99.90
9776;DHT22;4927;52.472;13.108;2022-11-09T15:41:59;13.20;99.90
9776;DHT22;4927;52.472;13.108;2022-11-09T15:47:03;13.10;99.90
9776;DHT22;4927;52.472;13.108;2022-11-09T15:52:10;13.00;99.90
9776;DHT22;4927;52.472;13.108;2022-11-09T15:57:16;12.90;99.90
9776;DHT22;4927;52.472;13.108;2022-11-09T16:02:22;12.90;99.90
9776;DHT22;4927;52.472;13.108;2022-11-09T16:07:28;12.80;99.90
9776;DHT22;4927;52.472;13.108;2022-11-09T16:12:36;12.70;99.90
9776;DHT22;4927;52.472;13.108;2022-11-09T16:17:41;12.70;99.90
9776;DHT22;4927;52.472;13.108;2022-11-09T16:22:47;12.70;99.90
9776;DHT22;4927;52.472;13.108;2022-11-09T16:27:54;12.60;99.90
9776;DHT22;4927;52.472;13.108;2022-11-09T16:33:00;12.60;99.90
9776;DHT22;4927;52.472;13.108;2022-11-09T16:38:07;12.60;99.90
9776;DHT22;4927;52.472;13.108;2022-11-09T16:43:13;12.60;99.90
9776;DHT22;4927;52.472;13.108;2022-11-09T16:48:19;12.50;99.90
9776;DHT22;4927;52.472;13.108;2022-11-09T16:53:24;12.50;99.90
9776;DHT22;4927;52.472;13.108;2022-11-09T16:58:30;12.50;99.90
9776;DHT22;4927;52.472;13.108;2022-11-09T17:03:36;12.50;99.90
9776;DHT22;4927;52.472;13.108;2022-11-09T17:08:42;12.40;99.90
9776;DHT22;4927;52.472;13.108;2022-11-09T17:13:53;12.40;99.90
9776;DHT22;4927;52.472;13.108;2022-11-09T17:18:57;12.40;99.90
9776;DHT22;4927;52.472;13.108;2022-11-09T17:24:01;12.30;99.90
9776;DHT22;4927;52.472;13.108;2022-11-09T17:29:08;12.30;99.90
9776;DHT22;4927;52.472;13.108;2022-11-09T17:34:15;12.20;99.90
9776;DHT22;4927;52.472;13.108;2022-11-09T17:39:22;12.20;99.90
9776;DHT22;4927;52.472;13.108;2022-11-09T17:44:28;12.20;99.90
9776;DHT22;4927;52.472;13.108;2022-11-09T17:49:35;12.00;99.90
9776;DHT22;4927;52.472;13.108;2022-11-09T17:54:41;12.00;99.90
9776;DHT22;4927;52.472;13.108;2022-11-09T17:59:47;11.80;99.90
9776;DHT22;4927;52.472;13.108;2022-11-09T18:04:54;11.70;99.90
9776;DHT22;4927;52.472;13.108;2022-11-09T18:10:00;11.70;99.90
9776;DHT22;4927;52.472;13.108;2022-11-09T18:15:07;11.80;99.90
9776;DHT22;4927;52.472;13.108;2022-11-09T18:20:13;12.00;99.90
9776;DHT22;4927;52.472;13.108;2022-11-09T18:25:18;12.20;99.90
9776;DHT22;4927;52.472;13.108;2022-11-09T18:30:22;12.20;99.90
9776;DHT22;4927;52.472;13.108;2022-11-09T18:35:28;12.20;99.90
9776;DHT22;4927;52.472;13.108;2022-11-09T18:40:34;12.20;99.90
9776;DHT22;4927;52.472;13.108;2022-11-09T18:45:40;12.20;99.90
9776;DHT22;4927;52.472;13.108;2022-11-09T18:50:49;12.20;99.90
9776;DHT22;4927;52.472;13.108;2022-11-09T18:55:58;12.20;99.90
9776;DHT22;4927;52.472;13.108;2022-11-09T19:01:05;12.00;99.90
9776;DHT22;4927;52.472;13.108;2022-11-09T19:06:11;12.00;99.90
9776;DHT22;4927;52.472;13.108;2022-11-09T19:11:17;11.90;99.90
9776;DHT22;4927;52.472;13.108;2022-11-09T19:16:25;11.80;99.90
9776;DHT22;4927;52.472;13.108;2022-11-09T19:21:37;11.90;99.90
9776;DHT22;4927;52.472;13.108;2022-11-09T19:26:42;11.80;99.90
9776;DHT22;4927;52.472;13.108;2022-11-09T19:31:47;11.70;99.90
9776;DHT22;4927;52.472;13.108;2022-11-09T19:36:53;11.70;99.90
9776;DHT22;4927;52.472;13.108;2022-11-09T19:41:57;11.60;99.90
9776;DHT22;4927;52.472;13.108;2022-11-09T19:47:03;11.60;99.90
9776;DHT22;4927;52.472;13.108;2022-11-09T19:52:10;11.50;99.90
9776;DHT22;4927;52.472;13.108;2022-11-09T19:57:17;11.20;99.90
9776;DHT22;4927;52.472;13.108;2022-11-09T20:02:23;11.20;99.90
9776;DHT22;4927;52.472;13.108;2022-11-09T20:07:30;11.00;99.90
9776;DHT22;4927;52.472;13.108;2022-11-09T20:12:33;11.00;99.90
9776;DHT22;4927;52.472;13.108;2022-11-09T20:17:47;10.80;99.90
9776;DHT22;4927;52.472;13.108;2022-11-09T20:22:54;10.70;99.90
9776;DHT22;4927;52.472;13.108;2022-11-09T20:28:00;10.60;99.90
9776;DHT22;4927;52.472;13.108;2022-11-09T20:33:08;10.50;99.90
9776;DHT22;4927;52.472;13.108;2022-11-09T20:38:14;10.50;99.90
9776;DHT22;4927;52.472;13.108;2022-11-09T20:43:20;10.50;99.90
9776;DHT22;4927;52.472;13.108;2022-11-09T20:48:26;10.50;99.90
9776;DHT22;4927;52.472;13.108;2022-11-09T20:53:33;10.40;99.90
9776;DHT22;4927;52.472;13.108;2022-11-09T20:58:40;10.40;99.90
9776;DHT22;4927;52.472;13.108;2022-11-09T21:03:46;10.40;99.90
9776;DHT22;4927;52.472;13.108;2022-11-09T21:08:51;10.50;99.90
9776;DHT22;4927;52.472;13.108;2022-11-09T21:13:56;10.50;99.90
9776;DHT22;4927;52.472;13.108;2022-11-09T21:19:03;10.50;99.90
9776;DHT22;4927;52.472;13.108;2022-11-09T21:24:08;10.50;99.90
9776;DHT22;4927;52.472;13.108;2022-11-09T21:29:21;10.50;99.90
9776;DHT22;4927;52.472;13.108;2022-11-09T21:34:32;10.50;99.90
9776;DHT22;4927;52.472;13.108;2022-11-09T21:39:39;10.50;99.90
9776;DHT22;4927;52.472;13.108;2022-11-09T21:44:45;10.50;99.90
9776;DHT22;4927;52.472;13.108;2022-11-09T21:49:51;10.60;99.90
9776;DHT22;4927;52.472;13.108;2022-11-09T21:54:58;10.70;99.90
9776;DHT22;4927;52.472;13.108;2022-11-09T22:00:07;10.70;99.90
9776;DHT22;4927;52.472;13.108;2022-11-09T22:05:14;10.70;99.90
9776;DHT22;4927;52.472;13.108;2022-11-09T22:10:21;10.70;99.90
9776;DHT22;4927;52.472;13.108;2022-11-09T22:15:27;10.80;99.90
9776;DHT22;4927;52.472;13.108;2022-11-09T22:20:40;10.70;99.90
9776;DHT22;4927;52.472;13.108;2022-11-09T22:25:52;10.70;99.90
9776;DHT22;4927;52.472;13.108;2022-11-09T22:30:59;10.70;99.90
9776;DHT22;4927;52.472;13.108;2022-11-09T22:36:06;10.80;99.90
9776;DHT22;4927;52.472;13.108;2022-11-09T22:41:13;10.70;99.90
9776;DHT22;4927;52.472;13.108;2022-11-09T22:46:19;10.70;99.90
9776;DHT22;4927;52.472;13.108;2022-11-09T22:51:25;10.80;99.90
9776;DHT22;4927;52.472;13.108;2022-11-09T22:56:31;10.80;99.90
9776;DHT22;4927;52.472;13.108;2022-11-09T23:01:37;10.90;99.90
9776;DHT22;4927;52.472;13.108;2022-11-09T23:06:44;10.90;99.90
9776;DHT22;4927;52.472;13.108;2022-11-09T23:11:48;10.90;99.90
9776;DHT22;4927;52.472;13.108;2022-11-09T23:16:54;10.90;99.90
9776;DHT22;4927;52.472;13.108;2022-11-09T23:22:00;10.90;99.90
9776;DHT22;4927;52.472;13.108;2022-11-09T23:27:07;11.00;99.90
9776;DHT22;4927;52.472;13.108;2022-11-09T23:32:13;11.00;99.90
9776;DHT22;4927;52.472;13.108;2022-11-09T23:37:20;11.00;99.90
9776;DHT22;4927;52.472;13.108;2022-11-09T23:42:26;11.00;99.90
9776;DHT22;4927;52.472;13.108;2022-11-09T23:47:32;11.00;99.90
9776;DHT22;4927;52.472;13.108;2022-11-09T23:52:39;10.90;99.90
9776;DHT22;4927;52.472;13.108;2022-11-09T23:57:45;10.80;99.90
